createdAt,value
2018-05-01T00:01:33.423Z,49.30
2018-05-01T00:04:02.241Z,50.00
2018-05-01T00:06:30.292Z,49.30
2018-05-01T00:08:58.397Z,49.00
2018-05-01T00:11:26.466Z,47.70
2018-05-01T00:13:54.922Z,48.20
2018-05-01T00:16:23.008Z,48.40
2018-05-01T00:18:51.438Z,47.80
2018-05-01T00:21:19.478Z,47.60
2018-05-01T00:23:47.558Z,47.40
2018-05-01T00:26:15.609Z,47.10
2018-05-01T00:28:43.684Z,47.20
2018-05-01T00:31:13.357Z,47.10
2018-05-01T00:33:42.937Z,47.10
2018-05-01T00:36:11.363Z,47.40
2018-05-01T00:38:40.408Z,47.50
2018-05-01T00:41:08.437Z,47.70
2018-05-01T00:43:36.489Z,48.20
2018-05-01T00:46:04.529Z,48.20
2018-05-01T00:48:32.610Z,48.20
2018-05-01T00:51:01.433Z,49.00
2018-05-01T00:53:29.497Z,48.70
2018-05-01T00:55:57.578Z,47.30
2018-05-01T00:58:28.493Z,46.50
2018-05-01T01:01:00.901Z,46.30
2018-05-01T01:03:34.181Z,45.50
2018-05-01T01:06:03.079Z,45.50
2018-05-01T01:08:32.303Z,45.40
2018-05-01T01:11:03.810Z,45.50
2018-05-01T01:13:33.206Z,46.10
2018-05-01T01:16:02.127Z,46.00
2018-05-01T01:18:31.606Z,45.90
2018-05-01T01:21:04.513Z,46.10
2018-05-01T01:23:32.535Z,46.30
2018-05-01T01:26:01.396Z,47.00
2018-05-01T01:28:29.564Z,46.60
2018-05-01T01:30:57.588Z,47.00
2018-05-01T01:33:25.658Z,47.10
2018-05-01T01:35:54.043Z,47.70
2018-05-01T01:38:22.350Z,47.50
2018-05-01T01:40:49.908Z,46.90
2018-05-01T01:43:17.557Z,47.10
2018-05-01T01:45:45.799Z,46.90
2018-05-01T01:48:14.226Z,47.90
2018-05-01T01:50:41.793Z,47.80
2018-05-01T01:53:10.196Z,48.60
2018-05-01T01:55:37.779Z,48.20
2018-05-01T01:58:06.162Z,49.00
2018-05-01T02:00:33.776Z,49.10
2018-05-01T02:03:01.317Z,49.60
2018-05-01T02:05:28.888Z,49.00
2018-05-01T02:07:56.546Z,49.50
2018-05-01T02:10:24.106Z,50.10
2018-05-01T02:12:51.658Z,49.20
2018-05-01T02:15:19.210Z,49.70
2018-05-01T02:17:46.781Z,49.50
2018-05-01T02:20:14.366Z,49.80
2018-05-01T02:22:41.929Z,50.40
2018-05-01T02:25:10.632Z,50.10
2018-05-01T02:27:38.166Z,50.00
2018-05-01T02:30:06.572Z,50.10
2018-05-01T02:32:34.577Z,50.20
2018-05-01T02:35:02.153Z,50.30
2018-05-01T02:37:29.748Z,50.40
2018-05-01T02:39:58.811Z,51.30
2018-05-01T02:42:27.300Z,51.10
2018-05-01T02:44:54.859Z,51.40
2018-05-01T02:47:22.511Z,51.60
2018-05-01T02:49:50.092Z,51.60
2018-05-01T02:52:17.652Z,51.90
2018-05-01T02:54:45.227Z,52.20
2018-05-01T02:57:12.795Z,52.30
2018-05-01T02:59:40.350Z,52.30
2018-05-01T03:02:08.694Z,53.10
2018-05-01T03:04:36.711Z,52.90
2018-05-01T03:07:04.647Z,52.90
2018-05-01T03:09:33.127Z,52.60
2018-05-01T03:12:01.110Z,52.50
2018-05-01T03:14:29.035Z,52.90
2018-05-01T03:16:57.363Z,53.20
2018-05-01T03:19:24.954Z,53.20
2018-05-01T03:21:52.511Z,53.50
2018-05-01T03:24:20.551Z,53.70
2018-05-01T03:26:48.803Z,54.40
2018-05-01T03:29:16.368Z,54.00
2018-05-01T03:31:43.974Z,54.30
2018-05-01T03:34:11.569Z,54.50
2018-05-01T03:36:39.943Z,54.70
2018-05-01T03:39:07.605Z,55.10
2018-05-01T03:41:35.079Z,55.20
2018-05-01T03:44:02.647Z,55.20
2018-05-01T03:46:30.195Z,55.30
2018-05-01T03:48:57.810Z,55.40
2018-05-01T03:51:25.317Z,55.70
2018-05-01T03:53:52.977Z,55.60
2018-05-01T03:56:20.637Z,55.70
2018-05-01T03:58:48.955Z,56.10
2018-05-01T04:01:17.300Z,56.80
2018-05-01T04:03:44.846Z,56.00
2018-05-01T04:06:12.432Z,56.40
2018-05-01T04:08:39.964Z,56.40
2018-05-01T04:11:07.503Z,56.50
2018-05-01T04:13:35.073Z,55.60
2018-05-01T04:16:02.630Z,55.30
2018-05-01T04:18:30.198Z,55.50
2018-05-01T04:20:57.752Z,55.90
2018-05-01T04:23:25.325Z,56.30
2018-05-01T04:25:52.878Z,56.90
2018-05-01T04:28:20.448Z,57.70
2018-05-01T04:30:48.031Z,57.80
2018-05-01T04:33:15.594Z,59.20
2018-05-01T04:35:43.174Z,59.20
2018-05-01T04:38:10.771Z,59.60
2018-05-01T04:40:38.421Z,60.10
2018-05-01T04:43:05.997Z,60.70
2018-05-01T04:45:33.558Z,61.80
2018-05-01T04:48:01.130Z,61.60
2018-05-01T04:50:28.708Z,61.90
2018-05-01T04:52:56.321Z,63.80
2018-05-01T04:55:23.891Z,63.10
2018-05-01T04:57:51.519Z,64.10
2018-05-01T05:00:19.821Z,64.70
2018-05-01T05:02:47.382Z,65.00
2018-05-01T05:05:14.959Z,64.60
2018-05-01T05:07:42.540Z,64.30
2018-05-01T05:10:10.167Z,64.20
2018-05-01T05:12:37.755Z,63.90
2018-05-01T05:15:05.344Z,64.00
2018-05-01T05:17:33.325Z,63.70
2018-05-01T05:20:01.636Z,64.90
2018-05-01T05:22:29.190Z,64.50
2018-05-01T05:24:56.755Z,64.30
2018-05-01T05:27:24.331Z,64.50
2018-05-01T05:29:52.006Z,64.50
2018-05-01T05:32:19.570Z,66.20
2018-05-01T05:34:47.325Z,66.40
2018-05-01T05:37:14.891Z,67.10
2018-05-01T05:39:42.419Z,68.00
2018-05-01T05:42:10.004Z,67.30
2018-05-01T05:44:38.305Z,68.70
2018-05-01T05:47:06.650Z,69.20
2018-05-01T05:49:34.208Z,69.80
2018-05-01T05:52:01.799Z,69.00
2018-05-01T05:54:30.119Z,69.60
2018-05-01T05:56:57.716Z,68.30
2018-05-01T05:59:25.305Z,68.50
2018-05-01T06:01:52.827Z,68.50
2018-05-01T06:04:20.374Z,68.90
2018-05-01T06:06:47.960Z,69.10
2018-05-01T06:09:15.527Z,67.10
2018-05-01T06:11:43.499Z,67.30
2018-05-01T06:14:11.906Z,67.20
2018-05-01T06:16:40.155Z,68.30
2018-05-01T06:19:08.513Z,68.90
2018-05-01T06:21:36.064Z,68.20
2018-05-01T06:24:03.650Z,70.30
2018-05-01T06:26:32.007Z,70.40
2018-05-01T06:28:59.554Z,70.60
2018-05-01T06:31:27.267Z,71.10
2018-05-01T06:33:54.816Z,70.60
2018-05-01T06:36:23.137Z,69.80
2018-05-01T06:38:50.683Z,69.40
2018-05-01T06:41:18.283Z,69.40
2018-05-01T06:43:45.843Z,71.40
2018-05-01T06:46:13.394Z,71.00
2018-05-01T06:48:40.957Z,70.70
2018-05-01T06:51:08.510Z,70.40
2018-05-01T06:53:36.105Z,70.40
2018-05-01T06:56:03.642Z,68.50
2018-05-01T06:58:31.224Z,68.50
2018-05-01T07:00:59.665Z,69.00
2018-05-01T07:03:27.211Z,70.00
2018-05-01T07:05:54.788Z,69.00
2018-05-01T07:08:22.376Z,68.10
2018-05-01T07:10:49.963Z,67.10
2018-05-01T07:13:17.479Z,67.60
2018-05-01T07:15:45.084Z,65.80
2018-05-01T07:18:12.580Z,65.20
2018-05-01T07:20:40.151Z,62.60
2018-05-01T07:23:07.695Z,60.80
2018-05-01T07:25:35.250Z,60.70
2018-05-01T07:28:02.834Z,58.60
2018-05-01T07:30:30.405Z,58.30
2018-05-01T07:32:57.967Z,58.00
2018-05-01T07:35:25.791Z,57.00
2018-05-01T07:40:27.400Z,56.60
2018-05-01T07:42:54.938Z,56.60
2018-05-01T07:45:22.525Z,56.90
2018-05-01T07:47:50.199Z,57.10
2018-05-01T07:50:17.706Z,58.50
2018-05-01T07:52:45.680Z,58.80
2018-05-01T07:55:13.244Z,59.30
2018-05-01T07:57:40.824Z,59.40
2018-05-01T08:02:37.483Z,59.30
2018-05-01T08:05:05.018Z,59.30
2018-05-01T08:07:32.604Z,59.10
2018-05-01T08:10:01.668Z,60.40
2018-05-01T08:12:29.255Z,58.80
2018-05-01T08:14:56.811Z,59.40
2018-05-01T08:17:24.362Z,59.00
2018-05-01T08:19:53.093Z,59.20
2018-05-01T08:22:21.434Z,59.90
2018-05-01T08:24:50.601Z,60.00
2018-05-01T08:27:18.192Z,59.90
2018-05-01T08:29:45.752Z,60.00
2018-05-01T08:32:13.325Z,59.30
2018-05-01T08:34:41.650Z,59.50
2018-05-01T08:37:09.233Z,59.00
2018-05-01T08:39:36.770Z,58.40
2018-05-01T08:42:05.086Z,58.60
2018-05-01T08:44:33.423Z,58.50
2018-05-01T08:47:00.983Z,58.40
2018-05-01T08:49:28.562Z,58.80
2018-05-01T08:51:56.105Z,58.70
2018-05-01T08:54:23.659Z,59.30
2018-05-01T08:56:51.231Z,59.10
2018-05-01T08:59:18.818Z,59.00
2018-05-01T09:01:46.360Z,58.50
2018-05-01T09:04:14.022Z,58.30
2018-05-01T09:06:41.569Z,58.20
2018-05-01T09:11:38.230Z,58.70
2018-05-01T09:14:05.749Z,58.70
2018-05-01T09:16:33.332Z,58.70
2018-05-01T09:19:00.870Z,59.20
2018-05-01T09:21:28.441Z,59.30
2018-05-01T09:23:56.013Z,59.40
2018-05-01T09:26:23.975Z,58.90
2018-05-01T09:28:51.568Z,58.70
2018-05-01T09:31:19.146Z,58.00
2018-05-01T09:33:47.505Z,57.80
2018-05-01T09:36:15.440Z,57.70
2018-05-01T09:38:42.997Z,58.30
2018-05-01T09:41:10.560Z,58.30
2018-05-01T09:43:38.205Z,57.60
2018-05-01T09:46:05.915Z,56.90
2018-05-01T09:48:33.440Z,57.30
2018-05-01T09:51:01.789Z,57.60
2018-05-01T09:53:30.614Z,58.20
2018-05-01T09:55:58.664Z,57.60
2018-05-01T09:58:26.742Z,57.60
2018-05-01T10:00:54.887Z,58.00
2018-05-01T10:03:24.064Z,58.00
2018-05-01T10:05:52.093Z,58.40
2018-05-01T10:10:49.577Z,60.50
2018-05-01T10:15:47.343Z,58.40
2018-05-01T10:18:15.374Z,58.30
2018-05-01T10:20:44.202Z,58.60
2018-05-01T10:23:12.278Z,57.70
2018-05-01T10:25:40.323Z,57.00
2018-05-01T10:28:09.181Z,57.20
2018-05-01T10:30:37.212Z,57.00
2018-05-01T10:33:05.277Z,56.80
2018-05-01T10:35:33.322Z,57.00
2018-05-01T10:38:02.144Z,56.50
2018-05-01T10:40:30.198Z,56.00
2018-05-01T10:42:58.654Z,56.10
2018-05-01T10:45:27.460Z,56.90
2018-05-01T10:47:55.496Z,57.00
2018-05-01T10:50:23.602Z,57.40
2018-05-01T10:52:52.398Z,57.90
2018-05-01T10:55:20.446Z,57.40
2018-05-01T10:57:49.266Z,57.80
2018-05-01T11:00:17.321Z,57.30
2018-05-01T11:02:46.280Z,57.60
2018-05-01T11:05:14.339Z,56.50
2018-05-01T11:07:42.361Z,56.90
2018-05-01T11:10:10.433Z,55.90
2018-05-01T11:12:39.223Z,54.70
2018-05-01T11:15:07.294Z,53.90
2018-05-01T11:17:35.460Z,52.10
2018-05-01T11:20:03.434Z,51.50
2018-05-01T11:22:31.498Z,50.90
2018-05-01T11:24:59.567Z,51.10
2018-05-01T11:27:27.625Z,51.00
2018-05-01T11:29:56.431Z,51.30
2018-05-01T11:32:24.496Z,50.70
2018-05-01T11:34:53.346Z,51.00
2018-05-01T11:37:21.411Z,50.30
2018-05-01T11:39:49.493Z,50.70
2018-05-01T11:42:17.582Z,50.60
2018-05-01T11:44:45.631Z,50.60
2018-05-01T11:47:13.682Z,48.50
2018-05-01T11:49:41.741Z,48.30
2018-05-01T11:52:09.778Z,47.50
2018-05-01T11:54:38.626Z,47.50
2018-05-01T11:57:06.687Z,47.50
2018-05-01T11:59:34.749Z,46.90
2018-05-01T12:02:02.788Z,46.50
2018-05-01T12:04:31.606Z,46.50
2018-05-01T12:06:59.684Z,46.40
2018-05-01T12:09:27.761Z,46.00
2018-05-01T12:11:55.823Z,44.90
2018-05-01T12:14:23.880Z,44.10
2018-05-01T12:16:51.935Z,43.50
2018-05-01T12:19:20.042Z,43.30
2018-05-01T12:21:48.127Z,43.10
2018-05-01T12:24:16.179Z,43.30
2018-05-01T12:26:44.230Z,42.10
2018-05-01T12:29:12.304Z,40.70
2018-05-01T12:31:40.361Z,38.80
2018-05-01T12:34:09.191Z,38.80
2018-05-01T12:36:37.363Z,38.40
2018-05-01T12:39:05.353Z,37.60
2018-05-01T12:41:33.440Z,38.00
2018-05-01T12:46:30.906Z,37.30
2018-05-01T12:48:58.971Z,37.40
2018-05-01T12:51:27.014Z,37.20
2018-05-01T12:53:55.173Z,37.50
2018-05-01T12:56:24.001Z,38.60
2018-05-01T12:58:52.822Z,37.90
2018-05-01T13:01:21.653Z,38.50
2018-05-01T13:03:49.713Z,37.30
2018-05-01T13:06:17.808Z,37.50
2018-05-01T13:08:45.836Z,38.00
2018-05-01T13:11:14.702Z,39.10
2018-05-01T13:13:42.742Z,38.80
2018-05-01T13:16:10.788Z,39.00
2018-05-01T13:18:38.868Z,38.80
2018-05-01T13:21:06.916Z,39.50
2018-05-01T13:23:35.805Z,39.70
2018-05-01T13:26:03.804Z,38.40
2018-05-01T13:28:31.882Z,38.10
2018-05-01T13:30:59.916Z,38.30
2018-05-01T13:33:27.989Z,37.40
2018-05-01T13:35:56.015Z,37.10
2018-05-01T13:38:24.063Z,36.40
2018-05-01T13:40:52.132Z,36.30
2018-05-01T13:43:20.198Z,36.20
2018-05-01T13:45:48.261Z,36.10
2018-05-01T13:48:16.329Z,36.60
2018-05-01T13:50:44.398Z,37.10
2018-05-01T13:53:12.451Z,37.50
2018-05-01T13:58:09.891Z,37.00
2018-05-01T14:00:37.927Z,37.30
2018-05-01T14:03:06.019Z,37.40
2018-05-01T14:05:34.065Z,36.90
2018-05-01T14:08:02.126Z,37.50
2018-05-01T14:10:30.678Z,37.00
2018-05-01T14:12:59.534Z,37.50
2018-05-01T14:15:28.138Z,37.50
2018-05-01T14:17:56.184Z,36.60
2018-05-01T14:20:24.216Z,36.30
2018-05-01T14:22:53.038Z,37.30
2018-05-01T14:25:21.114Z,36.80
2018-05-01T14:27:49.147Z,37.10
2018-05-01T14:30:17.210Z,35.10
2018-05-01T14:32:46.030Z,35.40
2018-05-01T14:35:14.090Z,35.20
2018-05-01T14:37:42.132Z,34.30
2018-05-01T14:40:10.948Z,34.50
2018-05-01T14:42:38.995Z,33.80
2018-05-01T14:45:07.937Z,34.00
2018-05-01T14:47:37.084Z,33.40
2018-05-01T14:50:06.275Z,33.50
2018-05-01T14:52:35.179Z,34.30
2018-05-01T14:55:03.224Z,32.60
2018-05-01T14:57:31.251Z,31.70
2018-05-01T15:00:00.517Z,31.90
2018-05-01T15:02:28.598Z,31.30
2018-05-01T15:04:56.615Z,31.40
2018-05-01T15:07:24.662Z,31.60
2018-05-01T15:09:52.707Z,32.00
2018-05-01T15:12:20.780Z,32.20
2018-05-01T15:14:48.806Z,32.70
2018-05-01T15:17:17.022Z,29.90
2018-05-01T15:19:45.812Z,30.50
2018-05-01T15:22:13.882Z,29.60
2018-05-01T15:24:41.934Z,29.90
2018-05-01T15:27:10.755Z,31.30
2018-05-01T15:29:38.825Z,31.70
2018-05-01T15:32:07.643Z,32.20
2018-05-01T15:34:35.695Z,32.10
2018-05-01T15:37:03.745Z,31.00
2018-05-01T15:39:31.808Z,31.60
2018-05-01T15:42:00.652Z,31.20
2018-05-01T15:44:28.681Z,30.70
2018-05-01T15:46:56.750Z,30.20
2018-05-01T15:49:24.812Z,30.30
2018-05-01T15:51:52.883Z,30.20
2018-05-01T15:54:20.932Z,30.60
2018-05-01T15:56:49.025Z,30.40
2018-05-01T15:59:17.034Z,29.90
2018-05-01T16:01:45.089Z,29.60
2018-05-01T16:04:13.137Z,30.30
2018-05-01T16:06:41.235Z,29.90
2018-05-01T16:09:09.246Z,30.10
2018-05-01T16:11:37.283Z,29.70
2018-05-01T16:14:05.431Z,29.40
2018-05-01T16:16:33.392Z,29.60
2018-05-01T16:19:01.430Z,29.70
2018-05-01T16:21:29.527Z,30.00
2018-05-01T16:23:58.453Z,30.10
2018-05-01T16:26:27.243Z,30.30
2018-05-01T16:28:55.313Z,29.90
2018-05-01T16:31:23.390Z,30.30
2018-05-01T16:33:52.198Z,32.10
2018-05-01T16:36:20.241Z,32.90
2018-05-01T16:38:48.264Z,32.90
2018-05-01T16:41:17.141Z,32.70
2018-05-01T16:43:45.179Z,32.00
2018-05-01T16:46:13.213Z,32.00
2018-05-01T16:48:42.067Z,34.00
2018-05-01T16:51:10.104Z,34.00
2018-05-01T16:53:38.182Z,34.00
2018-05-01T16:56:06.245Z,33.70
2018-05-01T16:58:34.320Z,33.30
2018-05-01T17:01:03.114Z,33.80
2018-05-01T17:03:31.163Z,33.60
2018-05-01T17:06:00.030Z,33.80
2018-05-01T17:08:28.082Z,34.30
2018-05-01T17:10:56.096Z,34.80
2018-05-01T17:13:24.169Z,35.30
2018-05-01T17:15:52.246Z,35.60
2018-05-01T17:18:20.306Z,35.80
2018-05-01T17:20:48.337Z,35.50
2018-05-01T17:23:16.423Z,35.80
2018-05-01T17:25:48.587Z,36.60
2018-05-01T17:28:17.419Z,36.90
2018-05-01T17:30:45.455Z,36.80
2018-05-01T17:33:14.301Z,36.30
2018-05-01T17:35:42.357Z,36.40
2018-05-01T17:38:10.398Z,36.60
2018-05-01T17:40:39.250Z,37.40
2018-05-01T17:43:07.326Z,37.40
2018-05-01T17:45:35.810Z,37.70
2018-05-01T17:48:03.829Z,37.60
2018-05-01T17:50:31.917Z,38.00
2018-05-01T17:52:59.977Z,38.10
2018-05-01T17:55:28.792Z,38.40
2018-05-01T17:57:56.877Z,38.70
2018-05-01T18:00:24.942Z,38.90
2018-05-01T18:02:53.016Z,39.60
2018-05-01T18:05:21.030Z,39.90
2018-05-01T18:07:49.145Z,40.20
2018-05-01T18:10:17.182Z,40.60
2018-05-01T18:12:45.230Z,40.70
2018-05-01T18:15:14.055Z,41.30
2018-05-01T18:17:42.130Z,41.50
2018-05-01T18:20:10.211Z,42.00
2018-05-01T18:22:38.263Z,42.60
2018-05-01T18:25:06.334Z,42.60
2018-05-01T18:27:34.407Z,42.20
2018-05-01T18:30:02.487Z,42.20
2018-05-01T18:32:30.585Z,41.80
2018-05-01T18:34:58.630Z,41.60
2018-05-01T18:37:26.663Z,41.00
2018-05-01T18:39:55.558Z,41.80
2018-05-01T18:42:24.337Z,42.10
2018-05-01T18:44:53.170Z,42.30
2018-05-01T18:47:21.221Z,41.80
2018-05-01T18:49:49.257Z,42.00
2018-05-01T18:52:18.096Z,42.30
2018-05-01T18:54:46.153Z,42.30
2018-05-01T18:57:14.246Z,42.30
2018-05-01T18:59:42.290Z,42.40
2018-05-01T19:02:10.356Z,42.60
2018-05-01T19:04:39.266Z,43.50
2018-05-01T19:07:07.213Z,43.10
2018-05-01T19:09:35.278Z,43.10
2018-05-01T19:12:04.102Z,43.70
2018-05-01T19:14:32.142Z,43.30
2018-05-01T19:17:00.558Z,43.70
2018-05-01T19:19:28.617Z,43.80
2018-05-01T19:21:56.675Z,44.00
2018-05-01T19:24:25.976Z,44.20
2018-05-01T19:26:54.035Z,44.20
2018-05-01T19:29:22.073Z,44.60
2018-05-01T19:31:50.112Z,44.80
2018-05-01T19:34:18.247Z,45.60
2018-05-01T19:36:46.598Z,45.50
2018-05-01T19:39:14.665Z,45.20
2018-05-01T19:41:42.702Z,45.50
2018-05-01T19:44:11.537Z,45.70
2018-05-01T19:46:39.589Z,45.80
2018-05-01T19:49:07.660Z,46.10
2018-05-01T19:51:35.690Z,46.40
2018-05-01T19:54:04.163Z,46.60
2018-05-01T19:56:32.236Z,46.60
2018-05-01T19:59:00.288Z,46.90
2018-05-01T20:01:29.075Z,47.70
2018-05-01T20:03:57.885Z,48.00
2018-05-01T20:06:25.951Z,47.70
2018-05-01T20:08:54.804Z,49.10
2018-05-01T20:11:22.794Z,49.10
2018-05-01T20:13:51.605Z,50.60
2018-05-01T20:16:19.648Z,49.70
2018-05-01T20:18:47.708Z,50.10
2018-05-01T20:21:15.762Z,50.00
2018-05-01T20:23:43.830Z,50.50
2018-05-01T20:26:11.913Z,50.50
2018-05-01T20:28:39.960Z,50.70
2018-05-01T20:31:08.019Z,51.10
2018-05-01T20:33:36.058Z,51.10
2018-05-01T20:36:04.101Z,51.60
2018-05-01T20:38:32.158Z,51.90
2018-05-01T20:41:00.234Z,51.90
2018-05-01T20:43:28.295Z,52.50
2018-05-01T20:45:56.387Z,53.30
2018-05-01T20:48:24.458Z,53.80
2018-05-01T20:50:52.511Z,54.30
2018-05-01T20:53:20.591Z,54.50
2018-05-01T20:55:48.654Z,55.70
2018-05-01T20:58:16.714Z,55.70
2018-05-01T21:00:44.753Z,55.40
2018-05-01T21:03:12.810Z,55.40
2018-05-01T21:05:40.854Z,56.30
2018-05-01T21:08:08.952Z,57.20
2018-05-01T21:10:38.207Z,57.90
2018-05-01T21:13:07.952Z,58.00
2018-05-01T21:15:39.792Z,57.70
2018-05-01T21:18:21.152Z,58.10
2018-05-01T21:20:52.194Z,58.60
2018-05-01T21:23:23.786Z,57.80
2018-05-01T21:25:57.652Z,57.00
2018-05-01T21:28:26.887Z,56.90
2018-05-01T21:30:56.920Z,56.90
2018-05-01T21:33:27.005Z,56.60
2018-05-01T21:35:56.601Z,57.20
2018-05-01T21:38:24.694Z,57.30
2018-05-01T21:40:52.769Z,57.80
2018-05-01T21:43:22.972Z,60.40
2018-05-01T21:45:51.049Z,59.70
2018-05-01T21:48:20.010Z,60.20
2018-05-01T21:50:52.656Z,60.80
2018-05-01T21:53:24.090Z,61.60
2018-05-01T21:55:56.600Z,61.20
2018-05-01T21:58:33.515Z,61.70
2018-05-01T22:01:03.866Z,61.40
2018-05-01T22:03:33.033Z,62.50
2018-05-01T22:06:01.094Z,62.10
2018-05-01T22:08:29.147Z,62.30
2018-05-01T22:10:57.229Z,63.00
2018-05-01T22:13:25.311Z,64.00
2018-05-01T22:15:53.369Z,63.60
2018-05-01T22:18:21.437Z,65.20
2018-05-01T22:20:49.527Z,66.10
2018-05-01T22:23:17.557Z,66.80
2018-05-01T22:25:45.680Z,66.80
2018-05-01T22:28:13.754Z,66.80
2018-05-01T22:30:41.811Z,67.10
2018-05-01T22:33:09.884Z,67.30
2018-05-01T22:35:37.950Z,67.50
2018-05-01T22:38:06.049Z,67.40
2018-05-01T22:40:34.131Z,68.60
2018-05-01T22:43:02.165Z,69.30
2018-05-01T22:45:30.231Z,69.40
2018-05-01T22:47:58.278Z,69.40
2018-05-01T22:50:26.359Z,69.80
2018-05-01T22:52:54.437Z,70.20
2018-05-01T22:55:22.487Z,70.50
2018-05-01T22:57:50.497Z,69.60
2018-05-01T23:00:19.296Z,68.70
2018-05-01T23:02:47.351Z,68.60
2018-05-01T23:05:15.398Z,69.40
2018-05-01T23:07:43.454Z,70.40
2018-05-01T23:10:11.511Z,70.00
2018-05-01T23:12:40.324Z,70.00
2018-05-01T23:15:08.437Z,69.90
2018-05-01T23:17:36.495Z,69.50
2018-05-01T23:20:04.522Z,70.00
2018-05-01T23:22:32.591Z,70.40
2018-05-01T23:25:01.434Z,72.80
2018-05-01T23:27:29.499Z,72.30
2018-05-01T23:29:57.559Z,73.50
2018-05-01T23:32:25.631Z,74.60
2018-05-01T23:34:54.251Z,75.40
2018-05-01T23:37:22.335Z,75.90
2018-05-01T23:39:50.406Z,76.90
2018-05-01T23:42:19.241Z,76.40
2018-05-01T23:44:47.363Z,76.30
2018-05-01T23:47:15.392Z,75.40
2018-05-01T23:49:43.446Z,75.10
2018-05-01T23:52:12.225Z,75.40
2018-05-01T23:54:41.285Z,75.30
2018-05-01T23:57:10.108Z,74.30
2018-05-01T23:59:38.279Z,74.10
